Time;durP1;ratioP1;P1;durP2;ratioP2;P2;SDS_P1;SDS_P2;PMS_P1;PMS_P2;Temp;Humidity;BMP_temperature;BMP_pressure;BME280_temperature;BME280_humidity;BME280_pressure;Samples;Min_cycle;Max_cycle;Signal;HPM_P1;HPM_P2
2024/02/11 00:01:02;;;;;;;17.27;11.57;;;10.90;99.90;;;;;;778111;181;26632;-77
2024/02/11 00:03:28;;;;;;;16.47;11.97;;;10.90;99.90;;;;;;779173;181;27004;-77
2024/02/11 00:05:55;;;;;;;16.13;11.93;;;10.90;99.90;;;;;;779520;182;26527;-76
2024/02/11 00:08:23;;;;;;;18.40;11.53;;;10.90;99.90;;;;;;778461;179;26496;-76
2024/02/11 00:10:49;;;;;;;14.87;10.50;;;10.80;99.90;;;;;;779008;183;27066;-77
2024/02/11 00:13:15;;;;;;;14.30;10.47;;;10.80;99.90;;;;;;783268;180;26491;-76
2024/02/11 00:15:43;;;;;;;12.77;10.07;;;10.80;99.90;;;;;;782203;182;26565;-76
2024/02/11 00:18:08;;;;;;;14.03;10.27;;;10.70;99.90;;;;;;784189;182;26592;-77
2024/02/11 00:20:35;;;;;;;13.90;10.80;;;10.70;99.90;;;;;;786009;182;26482;-77
2024/02/11 00:23:03;;;;;;;13.50;9.87;;;10.70;99.90;;;;;;783697;181;26561;-76
2024/02/11 00:25:30;;;;;;;13.67;10.37;;;10.60;99.90;;;;;;784649;179;26467;-77
2024/02/11 00:27:58;;;;;;;14.07;10.53;;;10.60;99.90;;;;;;783631;181;26480;-76
2024/02/11 00:30:22;;;;;;;13.50;11.23;;;10.60;99.90;;;;;;783479;179;27023;-74
2024/02/11 00:32:48;;;;;;;14.00;11.37;;;10.50;99.90;;;;;;784022;180;26473;-76
2024/02/11 00:35:17;;;;;;;16.40;11.90;;;10.50;99.90;;;;;;754828;188;26536;-77
2024/02/11 00:37:42;;;;;;;17.77;11.70;;;10.50;99.90;;;;;;754979;188;26538;-76
2024/02/11 00:40:10;;;;;;;14.00;11.07;;;10.50;99.90;;;;;;751855;188;28215;-76
2024/02/11 00:42:36;;;;;;;15.83;10.97;;;10.50;99.90;;;;;;754715;188;26532;-77
2024/02/11 00:45:04;;;;;;;15.60;10.87;;;10.50;99.90;;;;;;753493;188;26514;-77
2024/02/11 00:47:28;;;;;;;13.67;10.27;;;10.60;99.90;;;;;;757802;189;26500;-74
2024/02/11 00:49:55;;;;;;;13.07;11.00;;;10.50;99.90;;;;;;756478;188;27068;-77
2024/02/11 00:52:21;;;;;;;15.17;10.70;;;10.50;99.90;;;;;;757296;188;26542;-75
2024/02/11 00:54:48;;;;;;;13.90;10.20;;;10.50;99.90;;;;;;755074;188;26651;-76
2024/02/11 00:57:14;;;;;;;12.63;10.90;;;10.50;99.90;;;;;;751279;189;26589;-76
2024/02/11 00:59:41;;;;;;;12.87;10.40;;;10.50;99.90;;;;;;756228;187;27133;-77
2024/02/11 01:02:07;;;;;;;13.00;9.80;;;10.50;99.90;;;;;;753692;187;26579;-77
2024/02/11 01:04:38;;;;;;;16.10;10.37;;;10.50;99.90;;;;;;751765;190;26567;-77
2024/02/11 01:07:01;;;;;;;13.67;9.87;;;10.50;99.90;;;;;;766437;185;26565;-77
2024/02/11 01:09:27;;;;;;;14.87;11.50;;;10.50;99.90;;;;;;777705;183;26498;-75
2024/02/11 01:11:54;;;;;;;17.63;11.20;;;10.50;99.90;;;;;;765111;186;27206;-76
2024/02/11 01:14:21;;;;;;;12.23;10.50;;;10.50;99.90;;;;;;779878;182;26485;-76
2024/02/11 01:16:47;;;;;;;13.27;10.47;;;10.50;99.90;;;;;;757849;188;26522;-76
2024/02/11 01:19:14;;;;;;;15.90;10.57;;;10.50;99.90;;;;;;759295;187;26578;-75
2024/02/11 01:21:40;;;;;;;15.17;10.20;;;10.50;99.90;;;;;;783446;183;26507;-77
2024/02/11 01:24:07;;;;;;;12.63;10.23;;;10.50;99.90;;;;;;765102;187;26519;-75
2024/02/11 01:26:36;;;;;;;13.57;10.33;;;10.50;99.90;;;;;;763665;186;26526;-75
2024/02/11 01:29:03;;;;;;;14.60;10.23;;;10.50;99.90;;;;;;766269;187;26492;-76
2024/02/11 01:31:28;;;;;;;12.83;10.37;;;10.50;99.90;;;;;;781244;183;27087;-76
2024/02/11 01:33:54;;;;;;;13.97;9.90;;;10.50;99.90;;;;;;784392;179;26538;-76
2024/02/11 01:36:21;;;;;;;16.60;10.77;;;10.50;99.90;;;;;;759214;189;26510;-77
2024/02/11 01:38:47;;;;;;;14.57;9.90;;;10.40;99.90;;;;;;784959;182;27027;-77
2024/02/11 01:41:14;;;;;;;12.07;10.00;;;10.50;99.90;;;;;;753954;189;26527;-77
2024/02/11 01:43:40;;;;;;;14.43;10.37;;;10.50;99.90;;;;;;786157;182;26488;-77
2024/02/11 01:46:07;;;;;;;13.00;10.90;;;10.40;99.90;;;;;;756704;188;26557;-76
2024/02/11 01:48:34;;;;;;;14.47;10.77;;;10.50;99.90;;;;;;763025;187;26530;-77
2024/02/11 01:51:00;;;;;;;16.27;10.60;;;10.50;99.90;;;;;;781108;183;26465;-77
2024/02/11 01:53:27;;;;;;;12.53;10.80;;;10.50;99.90;;;;;;782791;183;26466;-76
2024/02/11 01:55:54;;;;;;;15.67;11.07;;;10.50;99.90;;;;;;757648;185;26581;-75
2024/02/11 01:58:20;;;;;;;15.90;10.80;;;10.50;99.90;;;;;;763378;187;26501;-77
2024/02/11 02:00:47;;;;;;;13.70;10.63;;;10.50;99.90;;;;;;784216;178;26458;-77
2024/02/11 02:03:13;;;;;;;15.23;9.70;;;10.50;99.90;;;;;;781530;183;26462;-77
2024/02/11 02:05:40;;;;;;;12.20;9.83;;;10.50;99.90;;;;;;782241;183;26503;-77
2024/02/11 02:08:08;;;;;;;13.93;9.80;;;10.50;99.90;;;;;;782722;182;26457;-75
2024/02/11 02:10:33;;;;;;;13.87;10.43;;;10.50;99.90;;;;;;783179;183;26475;-76
2024/02/11 02:13:00;;;;;;;12.87;10.60;;;10.50;99.90;;;;;;782701;183;26486;-76
2024/02/11 02:15:52;;;;;;;13.47;10.70;;;10.40;99.90;;;;;;782626;178;28180;-76
2024/02/11 02:18:19;;;;;;;14.43;11.00;;;10.50;99.90;;;;;;780854;181;27006;-79
2024/02/11 02:20:46;;;;;;;15.43;11.50;;;10.50;99.90;;;;;;777898;180;26470;-78
2024/02/11 02:23:12;;;;;;;13.07;10.63;;;10.40;99.90;;;;;;782002;180;27017;-78
2024/02/11 02:25:39;;;;;;;14.53;10.63;;;10.50;99.90;;;;;;786467;181;26528;-78
2024/02/11 02:28:05;;;;;;;16.40;10.87;;;10.40;99.90;;;;;;759962;183;26527;-79
2024/02/11 02:30:33;;;;;;;16.10;11.87;;;10.50;99.90;;;;;;754864;188;26586;-79
2024/02/11 02:32:59;;;;;;;14.80;11.60;;;10.50;99.90;;;;;;765524;184;27020;-76
2024/02/11 02:35:25;;;;;;;13.53;9.53;;;10.50;99.90;;;;;;758116;188;26528;-77
2024/02/11 02:37:53;;;;;;;16.07;11.80;;;10.60;99.90;;;;;;762654;188;26508;-78
2024/02/11 02:40:24;;;;;;;19.97;11.23;;;10.60;99.90;;;;;;762707;188;27095;-79
2024/02/11 02:42:46;;;;;;;16.07;12.33;;;10.60;99.90;;;;;;761038;188;26717;-78
2024/02/11 02:45:13;;;;;;;15.87;12.00;;;10.60;99.90;;;;;;764637;185;26503;-77
2024/02/11 02:47:39;;;;;;;14.27;10.50;;;10.50;99.90;;;;;;766563;187;26539;-75
2024/02/11 02:50:07;;;;;;;13.70;10.50;;;10.50;99.90;;;;;;767316;184;26491;-81
2024/02/11 02:52:33;;;;;;;15.13;10.90;;;10.50;99.90;;;;;;767662;183;26488;-81
2024/02/11 02:55:05;;;;;;;13.37;10.80;;;10.50;99.90;;;;;;764429;187;27020;-75
2024/02/11 02:57:26;;;;;;;13.23;10.87;;;10.60;99.90;;;;;;764194;186;27110;-77
2024/02/11 02:59:54;;;;;;;13.53;10.67;;;10.60;99.90;;;;;;763826;187;26482;-76
2024/02/11 03:02:20;;;;;;;11.37;8.90;;;10.60;99.90;;;;;;760412;187;26507;-77
2024/02/11 03:04:46;;;;;;;12.37;9.77;;;10.60;99.90;;;;;;762013;187;27044;-77
2024/02/11 03:07:13;;;;;;;12.97;10.93;;;10.50;99.90;;;;;;763990;187;26533;-78
2024/02/11 03:09:39;;;;;;;16.30;12.47;;;10.60;99.90;;;;;;761006;187;27118;-78
2024/02/11 03:12:06;;;;;;;14.73;11.73;;;10.50;99.90;;;;;;752406;189;26515;-78
2024/02/11 03:14:33;;;;;;;13.33;11.00;;;10.50;99.90;;;;;;763486;183;27069;-78
2024/02/11 03:16:59;;;;;;;14.30;10.13;;;10.60;99.90;;;;;;765366;185;26581;-76
2024/02/11 03:19:26;;;;;;;14.83;10.33;;;10.50;99.90;;;;;;766703;182;26502;-78
2024/02/11 03:21:53;;;;;;;11.47;9.80;;;10.60;99.90;;;;;;748865;190;26593;-79
2024/02/11 03:24:19;;;;;;;11.87;9.80;;;10.60;99.90;;;;;;765560;187;27108;-77
2024/02/11 03:26:46;;;;;;;11.90;9.87;;;10.60;99.90;;;;;;763389;188;26661;-75
2024/02/11 03:29:12;;;;;;;13.23;9.23;;;10.60;99.90;;;;;;763692;187;26530;-78
2024/02/11 03:31:39;;;;;;;12.27;9.53;;;10.60;99.90;;;;;;763467;188;26490;-81
2024/02/11 03:34:05;;;;;;;11.43;9.00;;;10.60;99.90;;;;;;766892;185;26524;-78
2024/02/11 03:36:32;;;;;;;12.20;9.67;;;10.60;99.90;;;;;;771743;183;26480;-78
2024/02/11 03:38:59;;;;;;;12.40;9.30;;;10.60;99.90;;;;;;767728;185;26472;-78
2024/02/11 03:41:25;;;;;;;14.87;10.30;;;10.50;99.90;;;;;;765963;185;26479;-76
2024/02/11 03:43:52;;;;;;;13.37;9.73;;;10.50;99.90;;;;;;764173;185;26501;-78
2024/02/11 03:46:18;;;;;;;12.10;10.20;;;10.50;99.90;;;;;;766578;184;26516;-77
2024/02/11 03:48:45;;;;;;;11.73;9.00;;;10.50;99.90;;;;;;751055;188;28142;-76
2024/02/11 03:51:12;;;;;;;13.83;10.70;;;10.60;99.90;;;;;;765050;188;26530;-77
2024/02/11 03:53:38;;;;;;;13.50;11.17;;;10.60;99.90;;;;;;765444;188;26501;-77
2024/02/11 03:56:05;;;;;;;18.33;11.70;;;10.60;99.90;;;;;;759283;187;26524;-78
2024/02/11 03:58:32;;;;;;;13.00;9.60;;;10.60;99.90;;;;;;754398;187;26507;-77
2024/02/11 04:00:59;;;;;;;12.77;8.63;;;10.60;99.90;;;;;;758752;189;26526;-76
2024/02/11 04:03:26;;;;;;;14.57;9.90;;;10.60;99.90;;;;;;766072;187;26528;-78
2024/02/11 04:05:55;;;;;;;11.77;9.77;;;10.60;99.90;;;;;;763782;187;26522;-77
2024/02/11 04:08:21;;;;;;;12.47;9.97;;;10.60;99.90;;;;;;763458;187;28147;-79
2024/02/11 04:10:47;;;;;;;13.43;9.87;;;10.60;99.90;;;;;;763315;187;26494;-79
2024/02/11 04:13:12;;;;;;;12.50;9.53;;;10.60;99.90;;;;;;764797;187;26497;-79
2024/02/11 04:15:39;;;;;;;12.40;9.83;;;10.60;99.90;;;;;;761390;188;27096;-79
2024/02/11 04:18:10;;;;;;;12.23;9.80;;;10.60;99.90;;;;;;763038;187;26575;-78
2024/02/11 04:20:34;;;;;;;14.43;10.07;;;10.70;99.90;;;;;;762619;187;26496;-77
2024/02/11 04:23:00;;;;;;;17.13;10.67;;;10.70;99.90;;;;;;762146;187;26576;-78
2024/02/11 04:25:30;;;;;;;12.67;9.50;;;10.70;99.90;;;;;;753789;188;27072;-78
2024/02/11 04:27:54;;;;;;;11.37;9.93;;;10.70;99.90;;;;;;767072;184;26531;-77
2024/02/11 04:30:21;;;;;;;11.93;9.57;;;10.70;99.90;;;;;;758897;187;26690;-80
2024/02/11 04:32:48;;;;;;;11.73;10.40;;;10.70;99.90;;;;;;764269;187;26496;-78
2024/02/11 04:35:16;;;;;;;14.43;11.63;;;10.60;99.90;;;;;;767142;185;26473;-79
2024/02/11 04:37:49;;;;;;;17.13;11.17;;;10.60;99.90;;;;;;758555;185;27044;-78
2024/02/11 04:40:16;;;;;;;11.97;10.73;;;10.60;99.90;;;;;;765811;184;26485;-78
2024/02/11 04:42:41;;;;;;;14.07;10.63;;;10.60;99.90;;;;;;755651;188;26526;-80
2024/02/11 04:45:08;;;;;;;12.13;10.23;;;10.60;99.90;;;;;;763869;185;26693;-79
2024/02/11 04:47:35;;;;;;;12.47;10.20;;;10.60;99.90;;;;;;759595;188;26547;-78
2024/02/11 04:50:04;;;;;;;11.97;10.10;;;10.70;99.90;;;;;;762789;187;26556;-77
2024/02/11 04:52:29;;;;;;;14.90;10.57;;;10.80;99.90;;;;;;747916;191;26526;-77
2024/02/11 04:54:56;;;;;;;11.07;7.97;;;10.90;99.90;;;;;;756182;187;26560;-77
2024/02/11 04:57:22;;;;;;;11.43;8.73;;;10.90;99.90;;;;;;762361;187;26511;-78
2024/02/11 04:59:49;;;;;;;10.33;7.40;;;11.00;99.90;;;;;;761079;186;26595;-77
2024/02/11 05:02:18;;;;;;;9.40;7.37;;;11.00;99.90;;;;;;754211;189;27114;-77
2024/02/11 05:04:43;;;;;;;7.47;6.30;;;11.00;99.90;;;;;;762203;183;26630;-76
2024/02/11 05:07:09;;;;;;;6.13;5.47;;;11.10;99.90;;;;;;761539;185;26582;-78
2024/02/11 05:09:37;;;;;;;6.47;5.53;;;11.10;99.90;;;;;;766471;183;27279;-79
2024/02/11 05:12:07;;;;;;;5.23;4.43;;;11.10;99.90;;;;;;744722;188;26523;-77
2024/02/11 05:14:30;;;;;;;5.53;4.20;;;11.10;99.90;;;;;;759152;187;26492;-79
2024/02/11 05:16:58;;;;;;;4.27;2.90;;;11.10;99.90;;;;;;764537;186;27164;-77
2024/02/11 05:19:23;;;;;;;3.90;3.23;;;11.10;99.90;;;;;;763122;187;26515;-78
2024/02/11 05:21:49;;;;;;;4.83;2.90;;;11.10;99.90;;;;;;761742;183;27020;-78
2024/02/11 05:24:16;;;;;;;12.80;7.80;;;11.10;99.90;;;;;;776578;184;26465;-77
2024/02/11 05:26:42;;;;;;;15.83;9.43;;;11.00;99.90;;;;;;771279;184;26507;-80
2024/02/11 05:29:09;;;;;;;7.87;5.23;;;10.80;99.90;;;;;;765084;184;26562;-77
2024/02/11 05:31:36;;;;;;;3.93;3.03;;;10.50;99.90;;;;;;762470;184;26468;-78
2024/02/11 05:34:05;;;;;;;4.20;3.00;;;10.30;99.90;;;;;;764978;184;26525;-77
2024/02/11 05:36:29;;;;;;;7.73;3.10;;;10.10;99.90;;;;;;770724;184;26494;-79
2024/02/11 05:38:55;;;;;;;4.57;3.27;;;9.60;99.90;;;;;;765700;183;26498;-78
2024/02/11 05:41:22;;;;;;;5.70;2.50;;;9.20;99.90;;;;;;759926;184;26524;-77
2024/02/11 05:43:49;;;;;;;4.20;2.30;;;9.00;99.90;;;;;;759044;185;26473;-77
2024/02/11 05:46:15;;;;;;;4.50;3.50;;;8.90;99.90;;;;;;762102;185;26575;-77
2024/02/11 05:48:42;;;;;;;11.73;6.27;;;8.80;99.90;;;;;;760720;185;26675;-80
2024/02/11 05:51:08;;;;;;;17.27;8.30;;;8.70;99.90;;;;;;763564;185;26506;-78
2024/02/11 05:53:35;;;;;;;12.73;5.63;;;8.70;99.90;;;;;;755087;188;26489;-74
2024/02/11 05:56:04;;;;;;;9.93;3.37;;;8.70;99.90;;;;;;762837;185;26587;-76
2024/02/11 05:58:28;;;;;;;7.33;3.50;;;8.70;99.90;;;;;;758472;188;27327;-80
2024/02/11 06:00:55;;;;;;;8.23;2.90;;;8.70;99.90;;;;;;763173;186;26538;-77
2024/02/11 06:03:22;;;;;;;9.67;3.30;;;8.70;99.90;;;;;;765475;185;27055;-77
2024/02/11 06:05:49;;;;;;;8.37;3.10;;;8.70;99.90;;;;;;767449;183;26478;-78
2024/02/11 06:08:15;;;;;;;6.83;3.30;;;8.70;99.90;;;;;;763139;186;26610;-77
2024/02/11 06:10:41;;;;;;;7.73;3.00;;;8.70;99.90;;;;;;761908;188;26505;-78
2024/02/11 06:13:10;;;;;;;6.00;3.00;;;8.60;99.90;;;;;;762788;188;26538;-77
2024/02/11 06:15:37;;;;;;;10.40;3.60;;;8.60;99.90;;;;;;764193;183;26481;-79
2024/02/11 06:18:03;;;;;;;9.37;3.37;;;8.60;99.90;;;;;;766767;185;26541;-80
2024/02/11 06:20:32;;;;;;;8.90;3.90;;;8.60;99.90;;;;;;763816;184;26472;-76
2024/02/11 06:22:57;;;;;;;13.27;3.90;;;8.60;99.90;;;;;;772223;183;26632;-78
2024/02/11 06:25:23;;;;;;;10.23;3.70;;;8.70;99.90;;;;;;758290;187;26537;-77
2024/02/11 06:27:50;;;;;;;9.13;3.77;;;8.60;99.90;;;;;;763161;187;26654;-78
2024/02/11 06:30:17;;;;;;;11.07;4.10;;;8.70;99.90;;;;;;747553;191;26586;-77
2024/02/11 06:32:44;;;;;;;11.53;4.60;;;8.70;99.90;;;;;;762159;187;26519;-78
2024/02/11 06:35:10;;;;;;;8.07;3.83;;;8.70;99.90;;;;;;766308;186;26521;-78
2024/02/11 06:37:38;;;;;;;9.07;3.90;;;8.70;99.90;;;;;;764994;187;26533;-78
2024/02/11 06:40:04;;;;;;;12.40;4.43;;;8.70;99.90;;;;;;761930;187;26533;-77
2024/02/11 06:42:30;;;;;;;10.33;4.10;;;8.70;99.90;;;;;;761229;186;26652;-77
2024/02/11 06:44:56;;;;;;;8.67;4.20;;;8.70;99.90;;;;;;759833;187;26515;-77
2024/02/11 06:47:23;;;;;;;10.57;4.10;;;8.70;99.90;;;;;;761858;187;27106;-74
2024/02/11 06:49:49;;;;;;;8.10;3.80;;;8.70;99.90;;;;;;764504;186;26550;-76
2024/02/11 06:52:17;;;;;;;11.67;4.50;;;8.90;99.90;;;;;;764076;187;26527;-76
2024/02/11 06:54:43;;;;;;;9.57;4.00;;;8.80;99.90;;;;;;763538;187;26517;-76
2024/02/11 06:57:10;;;;;;;11.33;4.43;;;8.90;99.90;;;;;;759623;185;26513;-77
2024/02/11 06:59:38;;;;;;;11.57;4.83;;;8.90;99.90;;;;;;772453;185;26587;-78
2024/02/11 07:02:04;;;;;;;9.40;4.10;;;8.90;99.90;;;;;;763396;183;26501;-79
2024/02/11 07:04:32;;;;;;;9.97;4.27;;;8.70;99.90;;;;;;769144;183;27012;-78
2024/02/11 07:06:57;;;;;;;10.83;4.13;;;8.70;99.90;;;;;;773722;184;26497;-78
2024/02/11 07:09:23;;;;;;;10.10;4.20;;;8.60;99.90;;;;;;742106;189;26741;-76
2024/02/11 07:11:50;;;;;;;14.50;5.30;;;8.60;99.90;;;;;;764797;185;26463;-77
2024/02/11 07:14:18;;;;;;;15.07;5.07;;;8.60;99.90;;;;;;760317;185;26502;-78
2024/02/11 07:16:44;;;;;;;11.37;4.27;;;8.60;99.90;;;;;;760507;188;26517;-77
2024/02/11 07:19:10;;;;;;;11.97;4.70;;;8.60;99.90;;;;;;763863;187;26572;-77
2024/02/11 07:21:39;;;;;;;12.07;4.80;;;8.70;99.90;;;;;;765425;183;26554;-78
2024/02/11 07:24:04;;;;;;;8.53;4.53;;;8.70;99.90;;;;;;757190;188;26532;-79
2024/02/11 07:26:30;;;;;;;6.70;4.20;;;8.70;99.90;;;;;;762991;187;26531;-77
2024/02/11 07:28:57;;;;;;;11.57;4.57;;;8.70;99.90;;;;;;764636;184;26481;-80
2024/02/11 07:31:23;;;;;;;9.23;4.53;;;8.70;99.90;;;;;;768568;185;27010;-78
2024/02/11 07:33:50;;;;;;;10.77;4.57;;;8.80;99.90;;;;;;768231;184;26491;-78
2024/02/11 07:36:18;;;;;;;14.30;4.30;;;8.80;99.90;;;;;;763719;184;26500;-77
2024/02/11 07:38:44;;;;;;;9.00;4.13;;;8.80;99.90;;;;;;770264;184;26543;-78
2024/02/11 07:41:11;;;;;;;7.77;4.47;;;8.80;99.90;;;;;;761644;187;26516;-78
2024/02/11 07:43:37;;;;;;;9.33;4.50;;;8.80;99.90;;;;;;764431;187;26518;-77
2024/02/11 07:46:04;;;;;;;10.97;4.60;;;8.80;99.90;;;;;;765619;186;26534;-79
2024/02/11 07:48:31;;;;;;;11.07;4.20;;;8.80;99.90;;;;;;765169;187;26517;-78
2024/02/11 07:50:58;;;;;;;12.47;4.93;;;8.70;99.90;;;;;;763692;187;26499;-77
2024/02/11 07:53:25;;;;;;;10.57;4.53;;;8.70;99.90;;;;;;763026;187;26510;-79
2024/02/11 07:55:52;;;;;;;9.17;4.90;;;8.70;99.90;;;;;;759303;188;26522;-77
2024/02/11 07:58:19;;;;;;;18.07;5.70;;;8.70;99.90;;;;;;758556;188;26595;-78
2024/02/11 08:00:46;;;;;;;6.70;4.60;;;8.70;99.90;;;;;;766342;187;27039;-78
2024/02/11 08:03:15;;;;;;;9.27;4.63;;;8.70;99.90;;;;;;766382;186;26481;-82
2024/02/11 08:05:42;;;;;;;10.33;4.80;;;8.60;99.90;;;;;;764745;182;26496;-76
2024/02/11 08:08:09;;;;;;;11.00;4.40;;;8.70;99.90;;;;;;765077;187;26588;-77
2024/02/11 08:10:36;;;;;;;9.10;4.80;;;8.70;99.90;;;;;;762344;188;26487;-77
2024/02/11 08:13:03;;;;;;;9.37;4.83;;;8.70;99.90;;;;;;764210;187;26508;-76
2024/02/11 08:15:29;;;;;;;11.17;4.77;;;8.80;99.90;;;;;;766462;183;26481;-79
2024/02/11 08:17:56;;;;;;;13.00;4.93;;;8.80;99.90;;;;;;764805;185;26520;-78
2024/02/11 08:20:23;;;;;;;9.57;4.97;;;8.70;99.90;;;;;;766804;185;26486;-78
2024/02/11 08:22:49;;;;;;;9.40;4.33;;;8.80;99.90;;;;;;771292;184;26472;-78
2024/02/11 08:25:17;;;;;;;11.83;5.40;;;8.80;99.90;;;;;;775008;171;26456;-76
2024/02/11 08:27:48;;;;;;;11.03;5.20;;;8.90;99.90;;;;;;788974;180;26462;-76
2024/02/11 08:30:26;;;;;;;10.83;5.30;;;8.90;99.90;;;;;;793315;180;26522;-77
2024/02/11 08:32:58;;;;;;;10.60;5.20;;;8.90;99.90;;;;;;798819;177;26467;-76
2024/02/11 08:35:23;;;;;;;12.50;4.80;;;9.00;99.90;;;;;;795672;179;27081;-76
2024/02/11 08:37:50;;;;;;;13.13;5.63;;;9.00;99.90;;;;;;804114;177;26427;-77
2024/02/11 08:40:17;;;;;;;14.00;4.90;;;8.90;99.90;;;;;;805486;177;27087;-77
2024/02/11 08:42:44;;;;;;;11.57;5.13;;;8.90;99.90;;;;;;803934;176;26453;-76
2024/02/11 08:45:11;;;;;;;11.93;5.13;;;9.00;99.90;;;;;;797944;177;26480;-73
2024/02/11 08:47:37;;;;;;;13.00;5.70;;;8.90;99.90;;;;;;803784;176;27078;-78
2024/02/11 08:50:04;;;;;;;11.83;6.20;;;9.00;99.90;;;;;;809151;177;26481;-77
2024/02/11 08:52:31;;;;;;;12.47;5.73;;;9.00;99.90;;;;;;797756;177;26972;-76
2024/02/11 08:54:56;;;;;;;9.27;5.23;;;9.00;99.90;;;;;;794340;180;26447;-76
2024/02/11 08:57:26;;;;;;;11.47;5.87;;;9.10;99.90;;;;;;793850;179;27128;-75
2024/02/11 08:59:50;;;;;;;10.63;6.20;;;9.10;99.90;;;;;;801014;176;26437;-77
2024/02/11 09:02:18;;;;;;;11.27;5.97;;;9.10;99.90;;;;;;793968;177;26439;-77
2024/02/11 09:04:45;;;;;;;10.27;5.93;;;9.10;99.90;;;;;;799227;177;26455;-76
2024/02/11 09:07:13;;;;;;;13.73;6.07;;;9.10;99.90;;;;;;791975;177;27056;-77
2024/02/11 09:09:38;;;;;;;14.03;6.40;;;9.20;99.90;;;;;;791196;177;26413;-77
2024/02/11 09:12:05;;;;;;;12.43;6.77;;;9.20;99.90;;;;;;797127;176;27112;-75
2024/02/11 09:14:32;;;;;;;15.10;6.80;;;9.30;99.90;;;;;;801248;176;26447;-77
2024/02/11 09:16:59;;;;;;;13.63;6.83;;;9.30;99.90;;;;;;780207;180;26529;-76
2024/02/11 09:19:25;;;;;;;12.73;6.80;;;9.40;99.90;;;;;;793970;176;27038;-76
2024/02/11 09:21:52;;;;;;;12.83;6.40;;;9.40;99.90;;;;;;795911;177;26442;-77
2024/02/11 09:24:18;;;;;;;11.93;6.40;;;9.30;99.90;;;;;;791758;176;26960;-75
2024/02/11 09:26:45;;;;;;;11.87;6.83;;;9.40;99.90;;;;;;792736;179;26507;-77
2024/02/11 09:29:12;;;;;;;11.13;6.10;;;9.50;99.90;;;;;;796118;177;27035;-76
2024/02/11 09:31:38;;;;;;;11.70;6.67;;;9.40;99.90;;;;;;796232;177;26471;-77
2024/02/11 09:34:05;;;;;;;12.40;5.93;;;9.50;99.90;;;;;;798308;177;27035;-78
2024/02/11 09:36:33;;;;;;;11.20;6.70;;;9.60;99.90;;;;;;796093;177;26487;-77
2024/02/11 09:39:00;;;;;;;10.03;6.83;;;9.60;99.90;;;;;;789455;177;26462;-77
2024/02/11 09:41:28;;;;;;;11.27;6.30;;;9.60;99.90;;;;;;793388;177;26463;-76
2024/02/11 09:43:53;;;;;;;12.43;6.73;;;9.70;99.90;;;;;;798340;177;27059;-75
2024/02/11 09:46:21;;;;;;;13.37;6.50;;;9.70;99.90;;;;;;796336;178;26452;-77
2024/02/11 09:48:47;;;;;;;13.63;6.57;;;9.80;99.90;;;;;;800539;178;27003;-77
2024/02/11 09:51:13;;;;;;;9.20;5.90;;;9.80;99.90;;;;;;790795;177;26443;-77
2024/02/11 09:53:40;;;;;;;12.37;6.27;;;9.80;99.90;;;;;;793591;177;26439;-77
2024/02/11 09:56:06;;;;;;;12.37;7.20;;;9.80;99.90;;;;;;807785;176;27033;-76
2024/02/11 09:58:33;;;;;;;12.30;7.07;;;9.80;99.90;;;;;;798641;177;26442;-76
2024/02/11 10:01:00;;;;;;;8.93;6.50;;;9.90;99.90;;;;;;792230;177;26458;-76
2024/02/11 10:03:27;;;;;;;8.87;6.60;;;9.90;99.90;;;;;;797517;177;26454;-75
2024/02/11 10:05:55;;;;;;;10.30;6.20;;;9.90;99.90;;;;;;789345;181;26505;-77
2024/02/11 10:08:21;;;;;;;10.60;6.50;;;10.00;99.90;;;;;;795966;178;26461;-75
2024/02/11 10:10:48;;;;;;;12.20;7.07;;;10.00;99.90;;;;;;799219;177;26528;-75
2024/02/11 10:13:19;;;;;;;11.20;7.20;;;10.10;99.90;;;;;;795105;177;26979;-77
2024/02/11 10:15:47;;;;;;;11.77;6.30;;;10.20;99.90;;;;;;792044;177;28100;-75
2024/02/11 10:18:17;;;;;;;9.33;6.47;;;10.20;99.90;;;;;;791019;178;26443;-77
2024/02/11 10:20:40;;;;;;;10.43;6.53;;;10.20;99.90;;;;;;795037;177;26452;-76
2024/02/11 10:23:07;;;;;;;9.40;6.27;;;10.20;99.90;;;;;;793998;177;26490;-77
2024/02/11 10:25:33;;;;;;;16.00;7.63;;;10.30;99.90;;;;;;795601;177;26450;-75
2024/02/11 10:28:01;;;;;;;13.60;7.50;;;10.20;99.90;;;;;;792449;177;26486;-77
2024/02/11 10:30:27;;;;;;;14.93;8.50;;;10.30;99.90;;;;;;792932;178;27113;-78
2024/02/11 10:32:58;;;;;;;11.13;7.03;;;10.40;99.90;;;;;;793376;178;26449;-76
2024/02/11 10:35:21;;;;;;;9.07;6.27;;;10.40;99.90;;;;;;794136;177;26529;-76
2024/02/11 10:37:48;;;;;;;7.37;5.90;;;10.40;99.90;;;;;;792141;177;26467;-77
2024/02/11 10:40:15;;;;;;;11.20;7.63;;;10.50;99.90;;;;;;796274;177;27357;-76
2024/02/11 10:42:41;;;;;;;11.33;7.93;;;10.60;99.90;;;;;;793527;176;26489;-77
2024/02/11 10:45:09;;;;;;;11.93;6.70;;;10.70;99.90;;;;;;796448;177;26525;-77
2024/02/11 10:47:35;;;;;;;11.67;6.83;;;10.80;99.90;;;;;;799154;177;26467;-76
2024/02/11 10:50:03;;;;;;;10.50;6.50;;;10.90;99.90;;;;;;792761;177;26499;-75
2024/02/11 10:52:28;;;;;;;9.83;7.00;;;11.00;99.90;;;;;;794375;178;26461;-76
2024/02/11 10:54:55;;;;;;;10.77;6.40;;;10.90;99.90;;;;;;791737;177;26446;-76
2024/02/11 10:57:21;;;;;;;9.03;6.50;;;11.00;99.90;;;;;;789558;181;26464;-77
2024/02/11 10:59:51;;;;;;;10.90;6.93;;;11.00;99.90;;;;;;794682;177;26440;-76
2024/02/11 11:02:17;;;;;;;8.23;6.70;;;11.00;99.90;;;;;;799533;176;27045;-77
2024/02/11 11:04:44;;;;;;;8.80;6.30;;;11.10;99.90;;;;;;795528;178;26590;-76
2024/02/11 11:07:12;;;;;;;8.80;7.00;;;11.10;99.90;;;;;;796177;176;26578;-76
2024/02/11 11:09:37;;;;;;;11.70;6.70;;;11.20;99.90;;;;;;802193;177;26651;-77
2024/02/11 11:12:07;;;;;;;11.53;7.73;;;11.20;99.90;;;;;;796529;177;26463;-76
2024/02/11 11:14:34;;;;;;;11.27;7.60;;;11.30;99.90;;;;;;800054;178;26444;-78
2024/02/11 11:17:03;;;;;;;10.90;7.13;;;11.50;99.90;;;;;;796812;177;26467;-77
2024/02/11 11:19:29;;;;;;;11.17;6.80;;;11.40;99.90;;;;;;797691;176;26430;-76
2024/02/11 11:21:58;;;;;;;7.90;6.17;;;11.30;99.90;;;;;;797087;177;26452;-76
2024/02/11 11:24:23;;;;;;;11.73;6.77;;;11.30;99.90;;;;;;801521;177;26455;-76
2024/02/11 11:26:52;;;;;;;9.30;7.07;;;11.40;99.90;;;;;;799039;177;26451;-76
2024/02/11 11:29:19;;;;;;;10.47;7.87;;;11.50;99.90;;;;;;794097;177;26445;-77
2024/02/11 11:31:47;;;;;;;13.60;7.37;;;11.60;99.90;;;;;;797834;177;26454;-77
2024/02/11 11:34:14;;;;;;;11.97;7.47;;;11.50;99.90;;;;;;794693;177;26452;-77
2024/02/11 11:36:40;;;;;;;11.33;6.50;;;11.40;99.90;;;;;;807295;176;26471;-76
2024/02/11 11:39:07;;;;;;;7.33;5.60;;;11.30;99.90;;;;;;801042;175;26990;-77
2024/02/11 11:41:34;;;;;;;9.00;6.93;;;11.20;99.90;;;;;;797181;177;26546;-76
2024/02/11 11:44:00;;;;;;;10.17;5.67;;;11.40;99.90;;;;;;793858;177;26474;-76
2024/02/11 11:46:27;;;;;;;10.67;6.57;;;11.90;99.90;;;;;;796142;175;26453;-77
2024/02/11 11:48:56;;;;;;;14.70;9.23;;;12.30;98.70;;;;;;796103;177;26450;-78
2024/02/11 11:51:23;;;;;;;10.37;6.33;;;12.30;98.60;;;;;;798863;178;26438;-77
2024/02/11 11:53:51;;;;;;;12.80;7.93;;;12.10;96.80;;;;;;797090;178;26434;-76
2024/02/11 11:56:17;;;;;;;15.53;9.47;;;12.10;97.90;;;;;;796090;177;26491;-76
2024/02/11 11:58:43;;;;;;;10.40;5.57;;;12.10;97.20;;;;;;800965;177;26425;-77
2024/02/11 12:01:10;;;;;;;9.10;3.97;;;12.00;96.70;;;;;;800195;177;26520;-78
2024/02/11 12:03:37;;;;;;;6.70;3.50;;;11.90;97.50;;;;;;792784;178;26974;-78
2024/02/11 12:06:04;;;;;;;20.90;14.67;;;11.80;96.60;;;;;;794320;178;27026;-77
2024/02/11 12:08:30;;;;;;;8.87;5.30;;;11.80;97.20;;;;;;792649;177;26439;-77
2024/02/11 12:10:58;;;;;;;3.77;3.37;;;11.70;97.80;;;;;;793172;177;26435;-77
2024/02/11 12:13:25;;;;;;;4.60;3.57;;;11.70;97.30;;;;;;799270;178;27003;-78
2024/02/11 12:15:52;;;;;;;4.33;3.00;;;11.70;97.80;;;;;;798707;177;26456;-76
2024/02/11 12:18:18;;;;;;;18.90;12.50;;;11.70;97.10;;;;;;806856;176;27020;-78
2024/02/11 12:20:45;;;;;;;4.03;3.50;;;11.60;97.60;;;;;;804025;177;26453;-77
2024/02/11 12:23:12;;;;;;;6.27;4.13;;;11.60;97.30;;;;;;798112;175;26443;-78
2024/02/11 12:25:39;;;;;;;8.63;4.20;;;11.70;97.90;;;;;;794360;174;26474;-78
2024/02/11 12:28:06;;;;;;;27.37;16.50;;;11.70;98.00;;;;;;802894;177;26439;-76
2024/02/11 12:30:33;;;;;;;8.17;4.47;;;11.80;97.60;;;;;;805020;176;26436;-78
2024/02/11 12:33:00;;;;;;;61.23;34.80;;;11.80;97.50;;;;;;798175;176;26455;-78
2024/02/11 12:35:29;;;;;;;49.07;29.63;;;11.60;96.60;;;;;;792838;176;26466;-79
2024/02/11 12:37:56;;;;;;;6.60;4.73;;;11.60;97.90;;;;;;795821;177;26440;-78